createdAt,value
2022-10-28T00:04:19.956Z,9.80
2022-10-28T00:09:26.054Z,11.00
2022-10-28T00:14:31.302Z,10.43
2022-10-28T00:19:36.539Z,10.63
2022-10-28T00:24:41.684Z,8.57
2022-10-28T00:29:46.900Z,8.17
2022-10-28T00:34:52.112Z,9.53
2022-10-28T00:39:57.269Z,9.37
2022-10-28T00:45:04.248Z,8.30
2022-10-28T00:50:27.245Z,7.27
2022-10-28T00:55:34.138Z,9.67
2022-10-28T01:00:39.381Z,8.00
2022-10-28T01:05:47.458Z,8.10
2022-10-28T01:11:27.977Z,7.53
2022-10-28T01:16:38.805Z,7.67
2022-10-28T01:22:03.349Z,9.37
2022-10-28T01:27:14.481Z,7.60
2022-10-28T01:32:31.402Z,7.77
2022-10-28T01:37:47.116Z,8.47
2022-10-28T01:42:58.349Z,7.73
2022-10-28T01:48:06.571Z,8.53
2022-10-28T01:53:17.838Z,8.63
2022-10-28T01:58:26.052Z,9.83
2022-10-28T02:03:33.316Z,7.80
2022-10-28T02:09:04.005Z,8.13
2022-10-28T02:14:28.988Z,8.83
2022-10-28T02:19:46.427Z,8.73
2022-10-28T02:25:12.309Z,8.07
2022-10-28T02:30:20.496Z,8.90
2022-10-28T02:35:34.576Z,8.17
2022-10-28T02:40:43.514Z,8.47
2022-10-28T02:45:51.748Z,9.27
2022-10-28T02:50:59.898Z,8.97
2022-10-28T02:56:07.478Z,8.57
2022-10-28T03:01:12.813Z,9.07
2022-10-28T03:06:18.098Z,9.33
2022-10-28T03:11:23.493Z,8.70
2022-10-28T03:16:28.677Z,8.17
2022-10-28T03:21:34.316Z,8.77
2022-10-28T03:26:39.634Z,8.07
2022-10-28T03:31:44.891Z,8.97
2022-10-28T03:36:50.300Z,9.00
2022-10-28T03:41:56.677Z,9.10
2022-10-28T03:47:01.880Z,9.70
2022-10-28T03:52:07.642Z,10.03
2022-10-28T03:57:12.897Z,9.33
2022-10-28T04:02:18.227Z,8.67
2022-10-28T04:07:24.283Z,8.47
2022-10-28T04:12:29.489Z,10.30
2022-10-28T04:17:39.524Z,8.43
2022-10-28T04:22:45.049Z,10.43
2022-10-28T04:27:51.296Z,10.90
2022-10-28T04:32:56.749Z,8.30
2022-10-28T04:38:01.964Z,10.20
2022-10-28T04:43:09.657Z,10.17
2022-10-28T04:48:15.555Z,8.97
2022-10-28T04:53:21.259Z,10.10
2022-10-28T04:58:27.532Z,8.77
2022-10-28T05:03:32.868Z,11.93
2022-10-28T05:08:38.268Z,10.40
2022-10-28T05:13:43.675Z,10.87
2022-10-28T05:18:49.460Z,11.57
2022-10-28T05:23:55.618Z,13.13
2022-10-28T05:29:00.927Z,12.03
2022-10-28T05:34:07.014Z,11.50
2022-10-28T05:39:14.146Z,12.47
2022-10-28T05:44:19.462Z,11.63
2022-10-28T05:49:24.920Z,11.63
2022-10-28T05:54:30.195Z,11.13
2022-10-28T05:59:35.451Z,12.20
2022-10-28T06:04:40.642Z,9.67
2022-10-28T06:09:45.873Z,12.27
2022-10-28T06:14:49.610Z,11.37
2022-10-28T06:19:54.968Z,12.77
2022-10-28T06:25:00.363Z,11.63
2022-10-28T06:30:08.138Z,12.47
2022-10-28T06:35:13.626Z,13.23
2022-10-28T06:40:18.851Z,13.33
2022-10-28T06:45:24.174Z,13.90
2022-10-28T06:50:33.351Z,13.63
2022-10-28T06:55:38.861Z,12.83
2022-10-28T07:00:44.186Z,14.13
2022-10-28T07:05:51.756Z,13.77
2022-10-28T07:10:58.688Z,14.23
2022-10-28T07:16:05.453Z,15.93
2022-10-28T07:21:11.172Z,15.20
2022-10-28T07:26:16.526Z,16.80
2022-10-28T07:31:21.873Z,14.77
2022-10-28T07:36:27.529Z,14.60
2022-10-28T07:41:33.073Z,16.23
2022-10-28T07:46:38.602Z,16.93
2022-10-28T07:51:44.129Z,16.07
2022-10-28T07:56:49.595Z,16.30
2022-10-28T08:01:55.625Z,15.47
2022-10-28T08:07:01.100Z,14.07
2022-10-28T08:12:08.134Z,16.23
2022-10-28T08:17:13.516Z,13.87
2022-10-28T08:22:19.384Z,14.20
2022-10-28T08:27:25.474Z,14.17
2022-10-28T08:32:30.878Z,14.20
2022-10-28T08:37:36.307Z,13.40
2022-10-28T08:42:54.259Z,13.17
2022-10-28T08:48:34.889Z,12.27
2022-10-28T08:53:43.334Z,13.57
2022-10-28T08:58:50.173Z,12.63
2022-10-28T09:03:55.737Z,12.33
2022-10-28T09:09:03.572Z,11.63
2022-10-28T09:14:26.475Z,10.70
2022-10-28T09:19:52.709Z,11.93
2022-10-28T09:25:18.179Z,11.83
2022-10-28T09:30:54.180Z,11.73
2022-10-28T09:36:01.917Z,11.37
2022-10-28T09:41:22.157Z,10.23
2022-10-28T09:46:34.663Z,10.23
2022-10-28T09:52:16.194Z,9.73
2022-10-28T09:57:26.733Z,9.70
2022-10-28T10:02:50.664Z,9.93
2022-10-28T10:08:11.284Z,9.10
2022-10-28T10:13:19.391Z,10.47
2022-10-28T10:18:27.546Z,11.47
2022-10-28T10:23:37.143Z,9.57
2022-10-28T10:28:48.631Z,11.27
2022-10-28T10:33:57.232Z,9.47
2022-10-28T10:39:04.272Z,9.43
2022-10-28T10:44:24.417Z,8.23
2022-10-28T10:49:47.004Z,7.67
2022-10-28T10:55:01.216Z,9.20
2022-10-28T11:00:07.221Z,8.77
2022-10-28T11:05:13.280Z,8.40
2022-10-28T11:10:30.504Z,7.47
2022-10-28T11:15:35.868Z,7.07
2022-10-28T11:20:50.583Z,8.20
2022-10-28T11:25:58.566Z,7.30
2022-10-28T11:31:36.065Z,7.10
2022-10-28T11:36:50.694Z,8.60
2022-10-28T11:42:31.209Z,8.00
2022-10-28T11:48:02.350Z,8.43
2022-10-28T11:53:31.501Z,8.07
2022-10-28T11:58:39.918Z,8.17
2022-10-28T12:03:57.951Z,9.50
2022-10-28T12:09:33.012Z,9.03
2022-10-28T12:14:47.574Z,9.77
2022-10-28T12:20:00.444Z,7.97
2022-10-28T12:25:30.036Z,8.10
2022-10-28T12:30:38.212Z,9.97
2022-10-28T12:35:55.580Z,8.80
2022-10-28T12:41:22.603Z,8.20
2022-10-28T12:51:59.495Z,9.37
2022-10-28T12:57:18.391Z,9.37
2022-10-28T13:02:33.717Z,9.20
2022-10-28T13:08:15.024Z,9.20
2022-10-28T13:13:40.182Z,9.07
2022-10-28T13:18:51.614Z,8.97
2022-10-28T13:23:59.971Z,9.13
2022-10-28T13:29:15.792Z,7.67
2022-10-28T13:34:28.723Z,9.80
2022-10-28T13:39:41.467Z,8.00
2022-10-28T13:45:00.265Z,13.80
2022-10-28T13:50:13.480Z,9.30
2022-10-28T13:55:44.895Z,10.10
2022-10-28T14:00:58.878Z,9.70
2022-10-28T14:06:04.235Z,9.67
2022-10-28T14:11:11.998Z,8.97
2022-10-28T14:16:31.828Z,8.63
2022-10-28T14:21:48.227Z,9.37
2022-10-28T14:27:09.206Z,6.90
2022-10-28T14:32:34.066Z,6.63
2022-10-28T14:37:56.240Z,8.80
2022-10-28T14:43:13.871Z,7.40
2022-10-28T14:48:56.192Z,7.63
2022-10-28T14:54:02.654Z,8.13
2022-10-28T14:59:34.194Z,8.07
2022-10-28T15:05:06.690Z,7.57
2022-10-28T15:10:31.946Z,8.70
2022-10-28T15:15:59.475Z,9.13
2022-10-28T15:21:13.485Z,15.57
2022-10-28T15:26:21.501Z,8.47
2022-10-28T15:31:27.551Z,8.77
2022-10-28T15:36:35.323Z,10.00
2022-10-28T15:41:53.716Z,9.20
2022-10-28T15:46:59.854Z,9.77
2022-10-28T15:52:25.219Z,8.07
2022-10-28T15:57:37.467Z,8.50
2022-10-28T16:02:43.766Z,8.80
2022-10-28T16:07:54.758Z,8.80
2022-10-28T16:13:36.164Z,8.77
2022-10-28T16:18:51.460Z,7.70
2022-10-28T16:23:59.153Z,7.50
2022-10-28T16:29:04.382Z,7.67
2022-10-28T16:34:32.333Z,9.30
2022-10-28T16:39:48.096Z,8.30
2022-10-28T16:51:11.230Z,7.90
2022-10-28T16:56:33.808Z,8.33
2022-10-28T17:01:39.588Z,7.33
2022-10-28T17:07:05.148Z,6.93
2022-10-28T17:12:15.866Z,8.63
2022-10-28T17:17:24.767Z,6.63
2022-10-28T17:22:47.292Z,7.80
2022-10-28T17:27:55.595Z,8.50
2022-10-28T17:33:01.312Z,13.23
2022-10-28T17:38:06.678Z,11.67
2022-10-28T17:43:29.406Z,12.30
2022-10-28T17:48:36.135Z,11.50
2022-10-28T17:53:43.014Z,9.10
2022-10-28T17:58:48.492Z,9.37
2022-10-28T18:03:53.971Z,8.27
2022-10-28T18:08:59.318Z,8.57
2022-10-28T18:14:06.691Z,8.47
2022-10-28T18:19:17.307Z,10.17
2022-10-28T18:24:28.222Z,11.83
2022-10-28T18:29:33.597Z,12.43
2022-10-28T18:34:39.054Z,13.27
2022-10-28T18:39:44.260Z,11.77
2022-10-28T18:45:07.543Z,10.10
2022-10-28T18:50:14.513Z,9.43
2022-10-28T18:55:19.941Z,9.73
2022-10-28T19:00:25.215Z,8.57
2022-10-28T19:05:33.272Z,12.23
2022-10-28T19:10:38.834Z,10.17
2022-10-28T19:15:50.240Z,10.23
2022-10-28T19:21:12.044Z,12.20
2022-10-28T19:26:17.737Z,12.70
2022-10-28T19:31:25.654Z,12.97
2022-10-28T19:36:31.880Z,10.27
2022-10-28T19:41:37.265Z,8.97
2022-10-28T19:59:15.304Z,7.77
2022-10-28T20:16:35.936Z,8.90
2022-10-28T20:27:50.435Z,7.30
2022-10-28T20:44:42.548Z,7.67
2022-10-28T20:49:51.804Z,8.13
2022-10-28T21:00:49.997Z,8.27
2022-10-28T21:11:24.157Z,8.13
2022-10-28T21:16:46.424Z,8.57
2022-10-28T21:39:39.382Z,8.70
2022-10-28T21:45:25.750Z,7.00
2022-10-28T22:03:07.945Z,7.00
2022-10-28T22:10:49.996Z,8.63
2022-10-28T22:14:14.398Z,6.87
2022-10-28T22:20:03.457Z,6.33
2022-10-28T22:44:02.659Z,5.10
